createdAt,value
2018-12-09T00:02:05.681Z,10.03
2018-12-09T00:04:44.822Z,10.03
2018-12-09T00:07:23.954Z,9.95
2018-12-09T00:09:59.178Z,9.81
2018-12-09T00:12:38.399Z,10.04
2018-12-09T00:15:17.301Z,9.69
2018-12-09T00:18:00.696Z,9.93
2018-12-09T00:20:46.982Z,9.93
2018-12-09T00:23:20.634Z,10.07
2018-12-09T00:25:52.762Z,9.83
2018-12-09T00:31:20.727Z,9.74
2018-12-09T00:33:51.809Z,9.87
2018-12-09T00:36:32.406Z,10.01
2018-12-09T00:39:11.243Z,10.22
2018-12-09T00:41:50.118Z,10.05
2018-12-09T00:44:21.971Z,10.06
2018-12-09T00:47:07.455Z,10.14
2018-12-09T00:49:53.347Z,9.95
2018-12-09T00:52:32.454Z,9.90
2018-12-09T00:55:03.091Z,9.65
2018-12-09T00:57:41.996Z,9.45
2018-12-09T01:00:13.344Z,9.53
2018-12-09T01:02:52.498Z,9.49
2018-12-09T01:05:23.294Z,9.44
2018-12-09T01:08:02.680Z,9.35
2018-12-09T01:10:42.606Z,9.38
2018-12-09T01:13:15.538Z,9.30
2018-12-09T01:15:55.565Z,9.32
2018-12-09T01:18:29.355Z,9.49
2018-12-09T01:20:59.798Z,9.40
2018-12-09T01:23:31.052Z,9.51
2018-12-09T01:26:02.990Z,9.55
2018-12-09T01:28:40.796Z,9.56
2018-12-09T01:31:15.027Z,9.53
2018-12-09T01:33:49.154Z,9.69
2018-12-09T01:36:21.227Z,9.51
2018-12-09T01:38:52.597Z,9.55
2018-12-09T01:41:31.300Z,9.80
2018-12-09T01:44:01.271Z,9.75
2018-12-09T01:46:39.766Z,9.90
2018-12-09T01:49:13.829Z,9.82
2018-12-09T01:51:47.631Z,9.77
2018-12-09T01:54:20.618Z,9.86
2018-12-09T01:56:51.403Z,9.80
2018-12-09T01:59:31.505Z,9.77
2018-12-09T02:02:03.277Z,9.76
2018-12-09T02:04:35.446Z,9.63
2018-12-09T02:07:06.504Z,9.81
2018-12-09T02:09:46.205Z,9.86
2018-12-09T02:12:18.183Z,9.94
2018-12-09T02:14:52.203Z,9.86
2018-12-09T02:17:23.637Z,9.96
2018-12-09T02:19:56.825Z,9.98
2018-12-09T02:22:35.392Z,10.13
2018-12-09T02:25:14.024Z,10.02
2018-12-09T02:27:52.786Z,9.96
2018-12-09T02:30:30.746Z,9.94
2018-12-09T02:33:03.078Z,10.07
2018-12-09T02:35:46.766Z,9.88
2018-12-09T02:38:25.491Z,9.81
2018-12-09T02:41:05.682Z,9.93
2018-12-09T02:43:36.215Z,10.02
2018-12-09T02:46:06.231Z,9.75
2018-12-09T02:48:44.103Z,9.92
2018-12-09T02:51:18.133Z,9.80
2018-12-09T02:53:49.005Z,9.79
2018-12-09T02:56:25.737Z,9.79
2018-12-09T02:59:04.869Z,9.91
2018-12-09T03:01:37.982Z,9.87
2018-12-09T03:04:09.762Z,9.87
2018-12-09T03:06:48.467Z,9.78
2018-12-09T03:09:19.607Z,9.77
2018-12-09T03:11:54.818Z,9.73
2018-12-09T03:14:38.163Z,9.86
2018-12-09T03:17:16.869Z,10.00
2018-12-09T03:19:54.873Z,9.79
2018-12-09T03:22:29.181Z,9.59
2018-12-09T03:25:02.151Z,9.77
2018-12-09T03:27:42.838Z,9.72
2018-12-09T03:30:18.469Z,9.58
2018-12-09T03:32:58.252Z,9.70
2018-12-09T03:35:33.354Z,9.70
2018-12-09T03:38:03.354Z,9.68
2018-12-09T03:40:41.874Z,9.58
2018-12-09T03:43:13.120Z,9.49
2018-12-09T03:45:44.332Z,9.54
2018-12-09T03:48:14.150Z,9.38
2018-12-09T03:50:45.970Z,9.55
2018-12-09T03:53:17.971Z,9.42
2018-12-09T03:55:50.132Z,9.22
2018-12-09T03:58:21.631Z,9.32
2018-12-09T04:01:02.124Z,9.45
2018-12-09T04:03:33.438Z,9.22
2018-12-09T04:06:05.354Z,9.33
2018-12-09T04:08:36.799Z,9.46
2018-12-09T04:11:06.811Z,9.44
2018-12-09T04:13:42.490Z,9.16
2018-12-09T04:16:22.522Z,9.12
2018-12-09T04:18:56.911Z,9.20
2018-12-09T04:21:28.252Z,9.31
2018-12-09T04:24:00.569Z,9.36
2018-12-09T04:26:31.854Z,9.08
2018-12-09T04:29:11.823Z,9.30
2018-12-09T04:31:50.757Z,9.27
2018-12-09T04:34:22.005Z,9.04
2018-12-09T04:36:51.997Z,9.12
2018-12-09T04:39:25.890Z,9.03
2018-12-09T04:42:04.503Z,9.07
2018-12-09T04:44:44.414Z,9.23
2018-12-09T04:47:16.660Z,9.17
2018-12-09T04:49:56.270Z,9.22
2018-12-09T04:52:34.656Z,9.22
2018-12-09T04:55:07.095Z,9.30
2018-12-09T04:57:41.025Z,9.20
2018-12-09T05:00:23.999Z,9.30
2018-12-09T05:02:59.667Z,9.20
2018-12-09T05:05:37.741Z,9.30
2018-12-09T05:08:11.839Z,9.23
2018-12-09T05:10:50.766Z,9.41
2018-12-09T05:13:29.653Z,9.21
2018-12-09T05:16:03.692Z,9.25
2018-12-09T05:18:36.265Z,9.27
2018-12-09T05:21:15.089Z,9.51
2018-12-09T05:23:48.093Z,9.26
2018-12-09T05:26:27.775Z,9.18
2018-12-09T05:29:06.807Z,9.26
2018-12-09T05:31:38.143Z,9.13
2018-12-09T05:34:09.975Z,9.18
2018-12-09T05:36:42.102Z,9.11
2018-12-09T05:39:20.723Z,9.24
2018-12-09T05:41:58.619Z,9.28
2018-12-09T05:44:31.734Z,9.24
2018-12-09T05:47:05.828Z,9.13
2018-12-09T05:49:39.835Z,9.16
2018-12-09T05:52:14.906Z,9.11
2018-12-09T05:54:47.774Z,9.19
2018-12-09T05:57:32.894Z,9.19
2018-12-09T06:00:11.526Z,9.23
2018-12-09T06:02:50.306Z,9.27
2018-12-09T06:08:23.229Z,9.38
2018-12-09T06:10:57.874Z,9.36
2018-12-09T06:13:32.205Z,9.45
2018-12-09T06:16:02.889Z,9.39
2018-12-09T06:18:41.850Z,9.40
2018-12-09T06:21:14.427Z,9.30
2018-12-09T06:23:46.644Z,9.34
2018-12-09T06:26:19.616Z,9.41
2018-12-09T06:28:59.763Z,9.18
2018-12-09T06:31:30.887Z,9.20
2018-12-09T06:34:00.906Z,9.60
2018-12-09T06:36:39.630Z,9.35
2018-12-09T06:39:17.771Z,9.44
2018-12-09T06:41:50.763Z,9.30
2018-12-09T06:44:24.212Z,9.41
2018-12-09T06:47:02.552Z,9.49
2018-12-09T06:49:34.981Z,9.45
2018-12-09T06:52:13.838Z,9.52
2018-12-09T06:54:46.164Z,9.29
2018-12-09T06:57:16.092Z,9.32
2018-12-09T06:59:53.900Z,9.55
2018-12-09T07:02:32.872Z,9.48
2018-12-09T07:05:05.576Z,9.52
2018-12-09T07:07:44.981Z,9.49
2018-12-09T07:10:18.302Z,9.42
2018-12-09T07:13:04.500Z,9.63
2018-12-09T07:15:43.738Z,9.63
2018-12-09T07:18:22.912Z,9.46
2018-12-09T07:21:03.150Z,9.47
2018-12-09T07:23:35.083Z,9.54
2018-12-09T07:26:13.042Z,9.42
2018-12-09T07:28:52.296Z,9.46
2018-12-09T07:31:24.720Z,9.39
2018-12-09T07:33:58.666Z,9.52
2018-12-09T07:36:38.240Z,9.44
2018-12-09T07:39:17.038Z,9.56
2018-12-09T07:41:57.181Z,9.53
2018-12-09T07:44:31.438Z,9.51
2018-12-09T07:47:18.573Z,9.49
2018-12-09T07:49:50.826Z,9.51
2018-12-09T07:52:24.125Z,9.59
2018-12-09T07:54:59.441Z,9.44
2018-12-09T07:57:29.975Z,9.59
2018-12-09T08:00:00.931Z,9.56
2018-12-09T08:02:43.686Z,9.55
2018-12-09T08:05:27.181Z,9.32
2018-12-09T08:08:05.362Z,9.48
2018-12-09T08:10:38.801Z,9.42
2018-12-09T08:13:10.913Z,9.26
2018-12-09T08:15:44.974Z,9.30
2018-12-09T08:18:19.698Z,9.41
2018-12-09T08:20:59.814Z,9.51
2018-12-09T08:23:32.191Z,9.30
2018-12-09T08:26:11.819Z,9.39
2018-12-09T08:28:44.282Z,9.25
2018-12-09T08:31:23.824Z,9.10
2018-12-09T08:33:58.797Z,9.27
2018-12-09T08:36:29.836Z,9.27
2018-12-09T08:39:07.741Z,9.30
2018-12-09T08:41:47.462Z,9.35
2018-12-09T08:44:25.273Z,9.19
2018-12-09T08:47:04.958Z,9.31
2018-12-09T08:49:49.866Z,9.13
2018-12-09T08:52:35.495Z,9.30
2018-12-09T08:55:10.170Z,9.32
2018-12-09T08:57:44.229Z,9.45
2018-12-09T09:00:18.212Z,9.43
2018-12-09T09:02:52.934Z,9.28
2018-12-09T09:05:34.720Z,9.24
2018-12-09T09:08:13.963Z,9.54
2018-12-09T09:10:46.434Z,9.64
2018-12-09T09:13:19.369Z,9.86
2018-12-09T09:18:45.192Z,9.43
2018-12-09T09:21:32.320Z,9.57
2018-12-09T09:24:23.393Z,9.38
2018-12-09T09:27:02.263Z,9.41
2018-12-09T09:29:36.282Z,9.33
2018-12-09T09:32:16.316Z,9.32
2018-12-09T09:34:57.875Z,9.40
2018-12-09T09:37:27.617Z,9.62
2018-12-09T09:39:58.781Z,9.73
2018-12-09T09:42:38.174Z,9.56
2018-12-09T09:45:16.611Z,9.62
2018-12-09T09:47:48.872Z,9.64
2018-12-09T09:50:27.771Z,9.57
2018-12-09T09:53:06.610Z,9.69
2018-12-09T09:55:37.049Z,9.72
2018-12-09T09:58:10.151Z,9.70
2018-12-09T10:00:40.986Z,9.57
2018-12-09T10:03:12.279Z,9.63
2018-12-09T10:05:58.132Z,9.51
2018-12-09T10:08:44.314Z,9.82
2018-12-09T10:11:15.268Z,9.44
2018-12-09T10:13:48.251Z,9.46
2018-12-09T10:16:30.958Z,9.63
2018-12-09T10:19:09.032Z,9.57
2018-12-09T10:21:48.161Z,9.59
2018-12-09T10:24:20.248Z,9.83
2018-12-09T10:26:53.438Z,9.57
2018-12-09T10:29:27.267Z,9.61
2018-12-09T10:31:59.118Z,9.64
2018-12-09T10:34:38.594Z,9.34
2018-12-09T10:37:21.636Z,9.83
2018-12-09T10:39:59.683Z,9.66
2018-12-09T10:42:37.677Z,9.94
2018-12-09T10:45:13.724Z,10.04
2018-12-09T10:47:48.629Z,9.96
2018-12-09T10:50:28.305Z,9.80
2018-12-09T10:53:21.964Z,10.04
2018-12-09T10:55:54.402Z,9.99
2018-12-09T10:58:33.879Z,10.09
2018-12-09T11:01:19.398Z,9.99
2018-12-09T11:03:56.306Z,9.51
2018-12-09T11:06:38.379Z,8.70
2018-12-09T11:09:13.657Z,8.56
2018-12-09T11:11:52.696Z,7.57
2018-12-09T11:14:24.991Z,7.54
2018-12-09T11:17:05.774Z,7.62
2018-12-09T11:19:37.964Z,8.02
2018-12-09T11:22:18.659Z,7.87
2018-12-09T11:24:51.449Z,8.03
2018-12-09T11:27:30.420Z,8.47
2018-12-09T11:30:05.783Z,8.24
2018-12-09T11:32:45.499Z,8.67
2018-12-09T11:35:31.194Z,8.70
2018-12-09T11:38:02.226Z,8.48
2018-12-09T11:40:36.832Z,9.09
2018-12-09T11:43:12.058Z,8.75
2018-12-09T11:45:49.889Z,9.14
2018-12-09T11:48:27.668Z,9.17
2018-12-09T11:50:58.736Z,9.05
2018-12-09T11:53:43.748Z,9.29
2018-12-09T11:56:23.812Z,9.24
2018-12-09T11:58:56.282Z,8.96
2018-12-09T12:01:31.250Z,9.54
2018-12-09T12:04:03.369Z,9.58
2018-12-09T12:06:35.436Z,9.54
2018-12-09T12:09:15.906Z,9.49
2018-12-09T12:11:54.958Z,8.85
2018-12-09T12:14:28.060Z,9.04
2018-12-09T12:16:58.820Z,9.35
2018-12-09T12:19:39.799Z,9.22
2018-12-09T12:22:18.983Z,9.77
2018-12-09T12:24:51.257Z,9.77
2018-12-09T12:27:30.529Z,9.61
2018-12-09T12:30:09.334Z,9.82
2018-12-09T12:32:50.745Z,9.74
2018-12-09T12:35:24.866Z,9.26
2018-12-09T12:38:02.734Z,8.94
2018-12-09T12:40:39.159Z,9.18
2018-12-09T12:43:12.237Z,9.62
2018-12-09T12:46:00.795Z,9.33
2018-12-09T12:48:39.632Z,9.55
2018-12-09T12:51:10.987Z,9.49
2018-12-09T12:53:41.825Z,9.54
2018-12-09T12:56:12.576Z,9.23
2018-12-09T12:58:46.434Z,9.18
2018-12-09T13:01:17.366Z,9.46
2018-12-09T13:03:48.368Z,9.49
2018-12-09T13:06:19.985Z,9.71
2018-12-09T13:08:59.269Z,9.57
2018-12-09T13:11:37.164Z,9.91
2018-12-09T13:14:12.989Z,9.47
2018-12-09T13:16:54.056Z,9.83
2018-12-09T13:19:32.481Z,10.02
2018-12-09T13:22:11.918Z,10.14
2018-12-09T13:24:44.253Z,10.03
2018-12-09T13:27:29.517Z,10.01
2018-12-09T13:30:03.124Z,10.10
2018-12-09T13:32:42.538Z,10.14
2018-12-09T13:35:18.184Z,9.94
2018-12-09T13:38:00.614Z,9.62
2018-12-09T13:40:31.462Z,9.98
2018-12-09T13:43:07.059Z,9.62
2018-12-09T13:45:39.218Z,9.76
2018-12-09T13:48:18.805Z,9.95
2018-12-09T13:50:50.906Z,9.74
2018-12-09T13:53:22.755Z,10.04
2018-12-09T13:56:01.317Z,9.55
2018-12-09T13:58:33.525Z,9.97
2018-12-09T14:01:03.540Z,9.95
2018-12-09T14:03:34.526Z,10.01
2018-12-09T14:06:26.332Z,10.16
2018-12-09T14:09:05.967Z,9.86
2018-12-09T14:11:45.042Z,10.12
2018-12-09T14:14:16.338Z,10.16
2018-12-09T14:16:56.973Z,10.14
2018-12-09T14:19:29.683Z,10.26
2018-12-09T14:22:00.522Z,9.73
2018-12-09T14:24:37.058Z,9.74
2018-12-09T14:27:08.140Z,10.07
2018-12-09T14:29:47.234Z,10.24
2018-12-09T14:32:33.045Z,9.97
2018-12-09T14:35:07.224Z,9.92
2018-12-09T14:37:39.610Z,9.83
2018-12-09T14:40:15.165Z,10.31
2018-12-09T14:42:55.794Z,10.09
2018-12-09T14:45:35.235Z,10.13
2018-12-09T14:48:13.366Z,9.87
2018-12-09T14:50:45.461Z,9.74
2018-12-09T14:53:16.475Z,9.36
2018-12-09T14:55:51.286Z,9.63
2018-12-09T14:58:31.760Z,9.59
2018-12-09T15:01:02.526Z,9.49
2018-12-09T15:03:34.579Z,9.96
2018-12-09T15:06:16.582Z,9.61
2018-12-09T15:08:47.536Z,9.97
2018-12-09T15:11:18.474Z,10.01
2018-12-09T15:13:53.960Z,9.63
2018-12-09T15:16:32.896Z,9.63
2018-12-09T15:19:05.217Z,9.69
2018-12-09T15:21:44.703Z,9.64
2018-12-09T15:24:23.550Z,9.61
2018-12-09T15:27:02.635Z,9.44
2018-12-09T15:29:44.168Z,9.70
2018-12-09T15:32:19.194Z,9.54
2018-12-09T15:34:52.628Z,9.51
2018-12-09T15:37:25.321Z,9.35
2018-12-09T15:40:09.641Z,9.41
2018-12-09T15:42:56.195Z,9.91
2018-12-09T15:45:28.337Z,9.49
2018-12-09T15:48:07.216Z,9.54
2018-12-09T15:50:36.839Z,9.29
2018-12-09T15:53:06.772Z,9.51
2018-12-09T15:55:37.584Z,9.60
2018-12-09T15:58:08.666Z,9.35
2018-12-09T16:00:40.483Z,9.10
2018-12-09T16:03:16.013Z,9.18
2018-12-09T16:05:50.703Z,9.27
2018-12-09T16:08:29.320Z,9.05
2018-12-09T16:11:07.183Z,9.36
2018-12-09T16:13:47.018Z,9.24
2018-12-09T16:16:25.960Z,9.15
2018-12-09T16:18:56.825Z,9.19
2018-12-09T16:21:41.555Z,9.33
2018-12-09T16:24:20.671Z,9.09
2018-12-09T16:26:53.027Z,8.99
2018-12-09T16:29:24.154Z,9.01
2018-12-09T16:32:04.769Z,8.99
2018-12-09T16:34:34.583Z,9.08
2018-12-09T16:37:13.046Z,9.13
2018-12-09T16:39:52.280Z,9.35
2018-12-09T16:42:31.138Z,9.00
2018-12-09T16:45:10.644Z,9.02
2018-12-09T16:47:48.401Z,8.80
2018-12-09T16:50:19.432Z,8.92
2018-12-09T16:52:53.351Z,9.07
2018-12-09T16:55:32.406Z,9.18
2018-12-09T16:58:03.656Z,9.21
2018-12-09T17:00:34.938Z,9.25
2018-12-09T17:03:28.605Z,9.23
2018-12-09T17:06:09.373Z,9.25
2018-12-09T17:08:48.229Z,9.61
2018-12-09T17:11:22.940Z,9.63
2018-12-09T17:13:58.000Z,9.53
2018-12-09T17:16:32.044Z,9.12
2018-12-09T17:19:10.929Z,9.24
2018-12-09T17:24:36.568Z,9.41
2018-12-09T17:27:15.320Z,9.47
2018-12-09T17:29:53.483Z,9.37
2018-12-09T17:32:26.163Z,9.37
2018-12-09T17:34:57.175Z,9.48
2018-12-09T17:37:35.750Z,8.92
2018-12-09T17:40:13.637Z,9.13
2018-12-09T17:42:47.058Z,8.89
2018-12-09T17:45:20.880Z,9.06
2018-12-09T17:47:59.038Z,8.99
2018-12-09T17:50:33.862Z,9.09
2018-12-09T17:53:11.782Z,9.46
2018-12-09T17:55:43.015Z,9.35
2018-12-09T17:58:15.761Z,9.19
2018-12-09T18:03:41.863Z,8.96
2018-12-09T18:06:21.586Z,8.88
2018-12-09T18:08:53.802Z,9.04
2018-12-09T18:11:24.741Z,9.16
2018-12-09T18:14:05.369Z,9.15
2018-12-09T18:16:44.705Z,8.85
2018-12-09T18:19:22.645Z,9.42
2018-12-09T18:22:01.523Z,9.37
2018-12-09T18:24:32.659Z,8.82
2018-12-09T18:27:03.769Z,8.92
2018-12-09T18:29:42.308Z,9.27
2018-12-09T18:32:22.826Z,9.12
2018-12-09T18:34:54.078Z,8.84
2018-12-09T18:40:19.059Z,9.27
2018-12-09T18:42:51.155Z,9.25
2018-12-09T18:45:21.894Z,8.98
2018-12-09T18:47:52.840Z,8.95
2018-12-09T18:50:32.550Z,9.07
2018-12-09T18:53:05.971Z,9.23
2018-12-09T18:55:38.138Z,9.22
2018-12-09T18:58:13.568Z,9.00
2018-12-09T19:00:52.487Z,9.08
2018-12-09T19:03:24.678Z,8.89
2018-12-09T19:05:56.969Z,8.95
2018-12-09T19:08:35.798Z,9.10
2018-12-09T19:11:14.799Z,9.21
2018-12-09T19:13:50.266Z,9.02
2018-12-09T19:16:28.965Z,8.83
2018-12-09T19:19:00.902Z,8.88
2018-12-09T19:21:35.021Z,8.59
2018-12-09T19:24:06.616Z,8.87
2018-12-09T19:26:49.295Z,8.62
2018-12-09T19:29:25.657Z,8.66
2018-12-09T19:32:14.791Z,8.62
2018-12-09T19:34:52.706Z,8.72
2018-12-09T19:37:26.621Z,9.04
2018-12-09T19:39:58.730Z,8.96
2018-12-09T19:42:35.176Z,9.00
2018-12-09T19:45:07.459Z,9.26
2018-12-09T19:47:39.267Z,8.92
2018-12-09T19:50:10.286Z,8.84
2018-12-09T19:52:48.985Z,8.58
2018-12-09T19:55:21.492Z,8.74
2018-12-09T19:57:54.469Z,8.44
2018-12-09T20:00:35.721Z,8.53
2018-12-09T20:03:17.741Z,9.10
2018-12-09T20:05:56.120Z,8.74
2018-12-09T20:08:31.251Z,8.76
2018-12-09T20:11:03.730Z,9.00
2018-12-09T20:13:35.262Z,8.76
2018-12-09T20:16:14.822Z,9.16
2018-12-09T20:19:01.864Z,8.92
2018-12-09T20:21:31.611Z,8.86
2018-12-09T20:24:05.031Z,8.66
2018-12-09T20:26:38.893Z,8.69
2018-12-09T20:29:24.178Z,8.89
2018-12-09T20:32:02.215Z,8.81
2018-12-09T20:34:37.755Z,8.93
2018-12-09T20:37:17.206Z,8.97
2018-12-09T20:39:56.298Z,9.16
2018-12-09T20:42:32.110Z,9.21
2018-12-09T20:45:07.318Z,8.55
2018-12-09T20:47:47.023Z,8.39
2018-12-09T20:50:25.947Z,8.39
2018-12-09T20:53:05.023Z,8.90
2018-12-09T20:55:36.533Z,8.74
2018-12-09T20:58:06.338Z,9.01
2018-12-09T21:00:39.461Z,8.71
2018-12-09T21:06:07.203Z,8.55
2018-12-09T21:08:40.084Z,8.96
2018-12-09T21:11:20.841Z,8.59
2018-12-09T21:13:56.369Z,8.63
2018-12-09T21:16:27.412Z,8.60
2018-12-09T21:19:08.109Z,8.74
2018-12-09T21:21:40.557Z,8.93
2018-12-09T21:24:25.593Z,8.42
2018-12-09T21:27:10.247Z,8.98
2018-12-09T21:29:42.408Z,8.55
2018-12-09T21:32:25.680Z,8.40
2018-12-09T21:34:58.198Z,8.62
2018-12-09T21:37:29.232Z,8.90
2018-12-09T21:40:08.852Z,8.67
2018-12-09T21:42:41.395Z,8.96
2018-12-09T21:45:14.104Z,8.41
2018-12-09T21:47:46.599Z,8.49
2018-12-09T21:50:30.647Z,8.28
2018-12-09T21:53:02.072Z,8.24
2018-12-09T21:55:39.962Z,8.67
2018-12-09T21:58:20.788Z,8.21
2018-12-09T22:00:57.099Z,8.00
2018-12-09T22:03:37.201Z,8.34
2018-12-09T22:06:15.244Z,8.05
2018-12-09T22:08:53.383Z,8.03
2018-12-09T22:11:32.076Z,8.21
2018-12-09T22:14:04.522Z,7.87
2018-12-09T22:16:43.282Z,8.24
2018-12-09T22:19:22.098Z,8.35
2018-12-09T22:21:59.858Z,8.54
2018-12-09T22:24:32.337Z,8.17
2018-12-09T22:30:11.571Z,8.30
2018-12-09T22:32:51.089Z,8.21
2018-12-09T22:35:24.394Z,8.06
2018-12-09T22:38:10.396Z,8.20
2018-12-09T22:40:46.068Z,8.27
2018-12-09T22:43:20.747Z,8.61
2018-12-09T22:45:53.074Z,8.21
2018-12-09T22:48:36.188Z,8.47
2018-12-09T22:51:07.022Z,8.33
2018-12-09T22:53:38.029Z,8.31
2018-12-09T22:56:16.532Z,8.67
2018-12-09T22:58:49.589Z,8.57
2018-12-09T23:01:28.952Z,8.30
2018-12-09T23:04:01.578Z,8.23
2018-12-09T23:06:33.610Z,7.93
2018-12-09T23:09:05.235Z,8.01
2018-12-09T23:11:43.984Z,8.07
2018-12-09T23:14:16.196Z,7.95
2018-12-09T23:16:54.157Z,7.53
2018-12-09T23:19:33.085Z,8.25
2018-12-09T23:22:13.142Z,7.68
2018-12-09T23:24:45.375Z,8.16
2018-12-09T23:27:18.696Z,8.33
2018-12-09T23:29:49.747Z,7.82
2018-12-09T23:32:29.377Z,8.28
2018-12-09T23:35:00.381Z,8.17
2018-12-09T23:37:38.245Z,8.22
2018-12-09T23:40:22.691Z,8.06
2018-12-09T23:43:02.215Z,7.79
2018-12-09T23:45:35.431Z,8.31
2018-12-09T23:48:15.180Z,7.77
2018-12-09T23:50:55.218Z,7.81
2018-12-09T23:53:27.609Z,7.50
2018-12-09T23:56:07.096Z,7.91
2018-12-09T23:58:41.256Z,7.76
